This is the latest recevied weather packets stored in our database for station/object KC1BRV. If no packets are shown the sender has not sent any weather packets the latest 10 day(s).
| Time | Temp. | Humidity | Pressure | Rain* | Wind** | Luminosity | Snow |
|---|---|---|---|---|---|---|---|
| 1777679268 | 13.89° C | 41% | 1011.5 hPa | 0 mm | - | 2 W/m² | - |
| 1777678965 | 13.89° C | 39% | 1011.2 hPa | 0 mm | - | 3 W/m² | - |
| 1777678663 | 14.44° C | 39% | 1011.2 hPa | 0 mm | - | 4 W/m² | - |
| 1777678361 | 14.44° C | 38% | 1011 hPa | 0 mm | - | 6 W/m² | - |
| 1777678056 | 15° C | 37% | 1011.1 hPa | 0 mm | - | 8 W/m² | - |
| 1777677753 | 15° C | 37% | 1010.9 hPa | 0 mm | - | 10 W/m² | - |
| 1777677451 | 15° C | 36% | 1010.8 hPa | 0 mm | - | 12 W/m² | - |
| 1777677149 | 15° C | 35% | 1010.8 hPa | 0 mm | - | 14 W/m² | - |
| 1777676847 | 15° C | 36% | 1010.7 hPa | 0 mm | - | 16 W/m² | - |
| 1777676546 | 15.56° C | 35% | 1010.6 hPa | 0 mm | - | 17 W/m² | - |
| 1777676242 | 15.56° C | 37% | 1010.7 hPa | 0 mm | - | 19 W/m² | - |
| 1777675940 | 15.56° C | 36% | 1010.5 hPa | 0 mm | - | 21 W/m² | - |
| 1777675635 | 16.11° C | 35% | 1010.6 hPa | 0 mm | - | 23 W/m² | - |
| 1777675333 | 16.11° C | 34% | 1010.3 hPa | 0 mm | - | 24 W/m² | - |
| 1777675029 | 16.11° C | 34% | 1010.5 hPa | 0 mm | - | 26 W/m² | - |
| 1777674726 | 16.11° C | 35% | 1010.5 hPa | 0 mm | - | 28 W/m² | - |
| 1777674422 | 16.11° C | 35% | 1010.6 hPa | 0 mm | - | 33 W/m² | - |
| 1777674120 | 16.67° C | 33% | 1010.3 hPa | 0 mm | - | 40 W/m² | - |
| 1777673816 | 16.67° C | 33% | 1010.4 hPa | 0 mm | - | 42 W/m² | - |
| 1777673513 | 16.67° C | 32% | 1010.5 hPa | 0 mm | - | 31 W/m² | - |
| 1777673211 | 16.67° C | 32% | 1010.4 hPa | 0 mm | - | 40 W/m² | - |
| 1777672908 | 16.67° C | 33% | 1010.4 hPa | 0 mm | - | 47 W/m² | - |
| 1777672605 | 16.67° C | 31% | 1010 hPa | 0 mm | - | 72 W/m² | - |
| 1777672300 | 16.67° C | 32% | 1010.2 hPa | 0 mm | - | 39 W/m² | - |
| 1777671995 | 16.67° C | 31% | 1010.1 hPa | 0 mm | - | 33 W/m² | - |
* Rain latest hour (hover to see other rain measurements)
** Current wind speed in m/s (hover to see current wind gust speed)